Time;durP1;ratioP1;P1;durP2;ratioP2;P2;SDS_P1;SDS_P2;PMS_P1;PMS_P2;Temp;Humidity;BMP_temperature;BMP_pressure;BME280_temperature;BME280_humidity;BME280_pressure;Samples;Min_cycle;Max_cycle;Signal;HPM_P1;HPM_P2
2024/01/02 00:00:04;;;;;;;2.63;0.60;;;10.20;99.90;;;;;;5013502;28;20112;-17
2024/01/02 00:02:30;;;;;;;2.63;0.50;;;10.20;99.90;;;;;;5017341;28;20501;-17
2024/01/02 00:04:56;;;;;;;2.15;0.60;;;9.90;99.90;;;;;;5015587;28;20119;-17
2024/01/02 00:07:21;;;;;;;1.50;0.60;;;10.10;99.90;;;;;;5013595;28;20071;-17
2024/01/02 00:09:47;;;;;;;1.15;0.60;;;10.20;99.90;;;;;;5013132;28;20692;-17
2024/01/02 00:12:13;;;;;;;0.60;0.40;;;10.20;99.90;;;;;;5044731;28;20037;-16
2024/01/02 00:14:38;;;;;;;2.90;0.52;;;10.20;99.90;;;;;;5013818;28;20123;-18
2024/01/02 00:17:04;;;;;;;1.27;0.50;;;10.20;99.90;;;;;;5016075;28;20144;-17
2024/01/02 00:19:30;;;;;;;2.58;0.50;;;10.10;99.90;;;;;;5012232;28;20033;-16
2024/01/02 00:21:55;;;;;;;0.57;0.50;;;10.20;99.90;;;;;;5014254;28;20048;-17
2024/01/02 00:24:21;;;;;;;1.38;0.50;;;10.10;99.90;;;;;;5013320;28;20098;-16
2024/01/02 00:26:47;;;;;;;1.80;0.40;;;10.10;99.90;;;;;;5012342;28;20631;-16
2024/01/02 00:29:13;;;;;;;0.77;0.50;;;10.10;99.90;;;;;;5028282;28;20034;-17
2024/01/02 00:31:40;;;;;;;0.80;0.50;;;9.70;99.90;;;;;;5012105;28;20059;-17
2024/01/02 00:34:06;;;;;;;0.82;0.43;;;10.10;99.90;;;;;;5013131;28;20037;-16
2024/01/02 00:36:31;;;;;;;0.73;0.50;;;10.10;99.90;;;;;;5012381;28;20029;-17
2024/01/02 00:38:57;;;;;;;1.48;0.40;;;10.10;99.90;;;;;;5012900;28;20029;-17
2024/01/02 00:41:23;;;;;;;0.63;0.40;;;10.10;99.90;;;;;;5012943;28;20026;-17
2024/01/02 00:43:49;;;;;;;1.25;0.60;;;10.10;99.90;;;;;;5010099;28;20148;-17
2024/01/02 00:46:15;;;;;;;1.98;0.40;;;10.10;99.90;;;;;;4999157;28;20112;-18
2024/01/02 00:48:40;;;;;;;0.97;0.40;;;10.10;99.90;;;;;;5011782;28;20033;-16
2024/01/02 00:51:06;;;;;;;1.52;0.40;;;10.10;99.90;;;;;;5009286;28;20425;-17
2024/01/02 00:53:32;;;;;;;0.40;0.40;;;10.10;99.90;;;;;;5015217;28;20060;-16
2024/01/02 00:55:57;;;;;;;1.00;0.40;;;10.10;99.90;;;;;;5011869;28;20520;-16
2024/01/02 00:58:23;;;;;;;0.30;0.30;;;10.10;99.90;;;;;;5014146;28;20136;-16
2024/01/02 01:00:49;;;;;;;0.93;0.40;;;10.10;99.90;;;;;;5012013;28;20033;-17
2024/01/02 01:03:15;;;;;;;0.70;0.40;;;10.10;99.90;;;;;;5013092;28;20033;-17
2024/01/02 01:05:40;;;;;;;0.77;0.40;;;10.10;99.90;;;;;;5009262;28;20025;-17
2024/01/02 01:08:06;;;;;;;0.30;0.30;;;10.20;99.90;;;;;;5016013;28;20509;-14
2024/01/02 01:10:32;;;;;;;0.57;0.40;;;10.20;99.90;;;;;;5013315;28;20206;-17
2024/01/02 01:12:57;;;;;;;0.67;0.37;;;10.20;99.90;;;;;;5001259;28;20239;-17
2024/01/02 01:15:23;;;;;;;1.30;0.30;;;10.20;99.90;;;;;;5013637;28;20034;-17
2024/01/02 01:17:49;;;;;;;1.30;0.40;;;10.30;99.90;;;;;;5014438;28;20029;-16
2024/01/02 01:20:15;;;;;;;1.25;0.30;;;10.30;99.90;;;;;;5011670;28;20088;-16
2024/01/02 01:22:40;;;;;;;0.30;0.30;;;10.30;99.90;;;;;;5010221;28;20030;-17
2024/01/02 01:25:06;;;;;;;0.30;0.30;;;10.30;99.90;;;;;;5012499;28;20032;-17
2024/01/02 01:27:32;;;;;;;0.63;0.40;;;10.30;99.90;;;;;;5012128;28;20022;-17
2024/01/02 01:29:58;;;;;;;0.40;0.30;;;10.30;99.90;;;;;;5013851;28;20026;-16
2024/01/02 01:32:24;;;;;;;0.35;0.30;;;10.50;99.90;;;;;;4999293;28;20688;-17
2024/01/02 01:34:50;;;;;;;0.40;0.40;;;9.60;99.90;;;;;;5013551;28;20018;-16
2024/01/02 01:37:15;;;;;;;0.20;0.20;;;10.40;99.90;;;;;;5011735;28;20033;-17
2024/01/02 01:39:41;;;;;;;0.43;0.30;;;9.50;99.90;;;;;;5009745;28;20037;-16
2024/01/02 01:42:07;;;;;;;0.40;0.32;;;10.40;99.90;;;;;;5025310;28;20076;-17
2024/01/02 01:44:33;;;;;;;0.87;0.30;;;10.40;99.90;;;;;;5008461;28;20022;-17
2024/01/02 01:46:58;;;;;;;0.30;0.30;;;10.40;99.90;;;;;;5016476;28;20018;-16
2024/01/02 01:49:24;;;;;;;0.30;0.30;;;10.40;99.90;;;;;;5000950;28;20450;-16
2024/01/02 01:51:53;;;;;;;0.65;0.30;;;10.50;99.90;;;;;;5014820;28;20942;-16
2024/01/02 01:54:20;;;;;;;0.57;0.30;;;10.50;99.90;;;;;;5043379;28;20516;-18
2024/01/02 01:56:45;;;;;;;0.22;0.22;;;10.50;99.90;;;;;;5013843;28;20404;-16
2024/01/02 01:59:15;;;;;;;0.80;0.30;;;10.50;99.90;;;;;;5016057;28;20041;-17
2024/01/02 02:01:45;;;;;;;0.63;0.40;;;10.50;99.90;;;;;;5015743;28;20111;-18
2024/01/02 02:04:11;;;;;;;0.50;0.32;;;10.60;99.90;;;;;;5016815;28;20030;-17
2024/01/02 02:06:37;;;;;;;0.40;0.40;;;10.60;99.90;;;;;;5015493;28;20034;-16
2024/01/02 02:09:02;;;;;;;0.30;0.30;;;10.60;99.90;;;;;;5013827;28;20038;-17
2024/01/02 02:11:29;;;;;;;0.40;0.30;;;10.60;99.90;;;;;;5012859;28;20033;-17
2024/01/02 02:13:55;;;;;;;0.30;0.30;;;10.60;99.90;;;;;;5014857;28;20029;-17
2024/01/02 02:16:20;;;;;;;0.30;0.30;;;10.70;99.90;;;;;;5015072;28;20053;-17
2024/01/02 02:18:46;;;;;;;0.30;0.30;;;9.10;99.90;;;;;;5015523;28;20065;-15
2024/01/02 02:21:12;;;;;;;0.32;0.30;;;10.70;99.90;;;;;;5015319;28;20084;-14
2024/01/02 02:23:37;;;;;;;1.23;0.30;;;10.70;99.90;;;;;;5011914;28;20025;-15
2024/01/02 02:26:03;;;;;;;0.30;0.30;;;9.30;99.90;;;;;;5014806;28;20021;-15
2024/01/02 02:28:29;;;;;;;0.30;0.30;;;10.80;99.90;;;;;;5017433;28;20087;-15
2024/01/02 02:30:55;;;;;;;0.40;0.40;;;10.80;99.90;;;;;;5014786;28;20034;-17
2024/01/02 02:33:20;;;;;;;1.40;0.30;;;10.80;99.90;;;;;;5014590;28;20041;-18
2024/01/02 02:35:46;;;;;;;0.30;0.30;;;10.80;99.90;;;;;;5017048;28;20331;-17
2024/01/02 02:38:12;;;;;;;0.43;0.40;;;10.80;99.90;;;;;;5014716;28;20029;-17
2024/01/02 02:40:38;;;;;;;0.20;0.20;;;9.90;99.90;;;;;;5016202;28;20558;-16
2024/01/02 02:43:04;;;;;;;0.63;0.40;;;10.80;99.90;;;;;;5012613;28;20026;-17
2024/01/02 02:45:29;;;;;;;0.40;0.30;;;10.90;99.90;;;;;;5016823;28;20055;-17
2024/01/02 02:47:55;;;;;;;0.33;0.33;;;10.90;99.90;;;;;;5015938;28;20042;-17
2024/01/02 02:50:21;;;;;;;0.30;0.30;;;10.90;99.90;;;;;;5015790;28;20025;-17
2024/01/02 02:52:46;;;;;;;0.25;0.25;;;10.90;99.90;;;;;;5013023;28;20028;-16
2024/01/02 02:55:12;;;;;;;0.27;0.27;;;11.00;99.90;;;;;;5013999;28;20112;-18
2024/01/02 02:57:38;;;;;;;0.40;0.30;;;11.00;99.90;;;;;;4998973;28;20641;-16
2024/01/02 03:00:04;;;;;;;0.90;0.40;;;11.00;99.90;;;;;;5003289;28;20042;-17
2024/01/02 03:02:30;;;;;;;0.30;0.30;;;11.00;99.90;;;;;;5014823;28;20276;-17
2024/01/02 03:04:56;;;;;;;0.30;0.30;;;11.10;99.90;;;;;;5015281;28;20029;-17
2024/01/02 03:07:22;;;;;;;0.25;0.25;;;11.10;99.90;;;;;;5014003;28;20484;-17
2024/01/02 03:09:47;;;;;;;0.20;0.20;;;11.10;99.90;;;;;;5015666;28;20405;-16
2024/01/02 03:12:13;;;;;;;0.30;0.30;;;10.20;99.90;;;;;;5013650;28;20105;-18
2024/01/02 03:14:39;;;;;;;0.40;0.40;;;11.20;99.90;;;;;;5017851;28;20283;-17
2024/01/02 03:17:05;;;;;;;0.35;0.30;;;11.30;99.90;;;;;;5012518;28;20030;-16
2024/01/02 03:19:31;;;;;;;0.43;0.30;;;11.30;99.90;;;;;;5013746;28;20484;-18
2024/01/02 03:21:57;;;;;;;0.30;0.30;;;11.40;99.90;;;;;;5012637;28;20052;-18
2024/01/02 03:24:22;;;;;;;0.30;0.30;;;11.30;99.90;;;;;;4998468;28;20485;-18
2024/01/02 03:26:48;;;;;;;0.30;0.30;;;11.40;99.90;;;;;;5015301;28;20037;-17
2024/01/02 03:29:16;;;;;;;0.30;0.30;;;10.80;99.90;;;;;;5016600;28;20076;-15
2024/01/02 03:31:43;;;;;;;0.20;0.20;;;11.50;99.90;;;;;;5004674;28;20033;-14
2024/01/02 03:34:09;;;;;;;0.30;0.30;;;11.50;99.90;;;;;;5013148;28;20547;-15
2024/01/02 03:36:34;;;;;;;0.40;0.30;;;11.60;99.90;;;;;;5017170;28;20065;-16
2024/01/02 03:39:00;;;;;;;0.30;0.30;;;11.60;99.90;;;;;;5010480;28;20041;-15
2024/01/02 03:41:27;;;;;;;0.30;0.30;;;11.60;99.90;;;;;;5013991;28;20041;-18
2024/01/02 03:43:52;;;;;;;0.50;0.40;;;11.70;99.90;;;;;;5016408;28;20060;-17
2024/01/02 03:46:18;;;;;;;0.90;0.50;;;11.70;99.90;;;;;;5015627;28;20713;-17
2024/01/02 03:48:44;;;;;;;0.30;0.30;;;11.80;99.90;;;;;;5014099;28;20033;-18
2024/01/02 03:51:11;;;;;;;0.50;0.40;;;11.80;99.90;;;;;;5012904;28;20550;-18
2024/01/02 03:53:37;;;;;;;0.45;0.40;;;11.90;99.90;;;;;;5015361;28;20038;-18
2024/01/02 03:56:04;;;;;;;0.50;0.30;;;11.90;99.90;;;;;;5013259;28;20034;-17
2024/01/02 03:58:30;;;;;;;0.43;0.40;;;12.00;99.90;;;;;;5015450;28;20056;-18
2024/01/02 04:00:56;;;;;;;0.40;0.40;;;12.00;99.90;;;;;;5016586;28;20113;-18
2024/01/02 04:03:22;;;;;;;1.03;0.40;;;12.10;99.90;;;;;;5012852;28;20377;-20
2024/01/02 04:05:48;;;;;;;0.52;0.40;;;12.10;99.90;;;;;;5012015;28;20097;-18
2024/01/02 04:08:14;;;;;;;0.57;0.50;;;12.10;99.90;;;;;;5010937;28;20112;-18
2024/01/02 04:10:40;;;;;;;0.43;0.40;;;12.20;99.90;;;;;;5012234;28;20025;-18
2024/01/02 04:13:06;;;;;;;0.50;0.40;;;12.20;99.90;;;;;;5010339;28;20408;-20
2024/01/02 04:15:32;;;;;;;0.40;0.38;;;12.20;99.90;;;;;;5012217;28;20036;-17
2024/01/02 04:17:58;;;;;;;0.30;0.30;;;12.30;99.90;;;;;;5029332;28;20424;-18
2024/01/02 04:20:23;;;;;;;0.30;0.30;;;12.30;99.90;;;;;;5013929;28;20025;-19
2024/01/02 04:22:54;;;;;;;0.20;0.20;;;12.30;99.90;;;;;;5013752;28;20476;-19
2024/01/02 04:25:21;;;;;;;0.30;0.30;;;12.40;99.90;;;;;;5013071;28;20605;-18
2024/01/02 04:27:47;;;;;;;0.40;0.40;;;12.40;99.90;;;;;;5012814;28;20133;-18
2024/01/02 04:30:13;;;;;;;0.30;0.30;;;12.40;99.90;;;;;;5012237;28;20108;-19
2024/01/02 04:32:38;;;;;;;0.20;0.20;;;12.40;99.90;;;;;;5011684;28;20033;-19
2024/01/02 04:35:05;;;;;;;0.23;0.23;;;12.50;99.90;;;;;;5044997;28;20544;-18
2024/01/02 04:37:30;;;;;;;0.30;0.30;;;12.50;99.90;;;;;;5013048;28;20113;-19
2024/01/02 04:39:56;;;;;;;0.20;0.20;;;12.50;99.90;;;;;;5012398;28;20105;-18
2024/01/02 04:42:22;;;;;;;0.20;0.20;;;12.50;99.90;;;;;;5014326;28;20025;-20
2024/01/02 04:44:48;;;;;;;0.20;0.20;;;12.60;99.90;;;;;;5014096;28;20033;-20
2024/01/02 04:47:14;;;;;;;0.30;0.30;;;12.60;99.90;;;;;;5011789;28;20032;-17
2024/01/02 04:49:39;;;;;;;0.23;0.23;;;12.60;99.90;;;;;;5011636;28;20033;-19
2024/01/02 04:52:05;;;;;;;0.20;0.20;;;12.60;99.90;;;;;;5009489;28;20042;-19
2024/01/02 04:54:31;;;;;;;0.20;0.20;;;12.70;99.90;;;;;;5015258;28;20022;-19
2024/01/02 04:56:57;;;;;;;0.20;0.20;;;12.70;99.90;;;;;;5016257;28;20111;-17
2024/01/02 04:59:23;;;;;;;0.33;0.27;;;12.70;99.90;;;;;;5015294;28;20156;-21
2024/01/02 05:01:49;;;;;;;0.20;0.20;;;12.70;99.90;;;;;;5012514;28;20112;-21
2024/01/02 05:04:15;;;;;;;0.20;0.20;;;12.70;99.90;;;;;;5010831;28;20037;-19
2024/01/02 05:06:41;;;;;;;0.20;0.20;;;12.80;99.90;;;;;;5012984;28;20025;-19
2024/01/02 05:09:08;;;;;;;0.20;0.20;;;12.80;99.90;;;;;;5010762;28;20034;-19
2024/01/02 05:11:37;;;;;;;0.20;0.20;;;12.80;99.90;;;;;;5010188;28;20326;-20
2024/01/02 05:14:03;;;;;;;0.20;0.20;;;12.80;99.90;;;;;;5012359;28;20033;-19
2024/01/02 05:16:29;;;;;;;0.27;0.27;;;12.90;99.90;;;;;;5000262;28;20037;-18
2024/01/02 05:18:55;;;;;;;0.63;0.20;;;12.90;99.90;;;;;;5014778;28;20029;-19
2024/01/02 05:21:20;;;;;;;0.20;0.20;;;12.90;99.90;;;;;;5012920;28;20123;-18
2024/01/02 05:23:46;;;;;;;0.43;0.40;;;12.90;99.90;;;;;;5016362;28;20025;-19
2024/01/02 05:26:12;;;;;;;0.20;0.20;;;12.90;99.90;;;;;;5015227;28;20160;-19
2024/01/02 05:28:37;;;;;;;0.20;0.20;;;12.90;99.90;;;;;;5018086;28;20017;-19
2024/01/02 05:31:03;;;;;;;0.27;0.27;;;12.90;99.90;;;;;;5046775;28;20048;-19
2024/01/02 05:33:30;;;;;;;0.28;0.20;;;13.00;99.90;;;;;;5019160;28;20108;-18
2024/01/02 05:35:55;;;;;;;0.20;0.20;;;13.00;99.90;;;;;;5020780;28;20041;-19
2024/01/02 05:38:21;;;;;;;0.20;0.20;;;13.00;99.90;;;;;;5015453;28;20535;-20
2024/01/02 05:40:46;;;;;;;0.20;0.20;;;13.00;99.90;;;;;;5027396;28;20052;-18
2024/01/02 05:43:12;;;;;;;0.37;0.37;;;13.00;99.90;;;;;;5016187;28;20076;-19
2024/01/02 05:45:38;;;;;;;0.30;0.30;;;13.00;99.90;;;;;;5015334;28;20048;-19
2024/01/02 05:48:04;;;;;;;0.40;0.40;;;13.00;99.90;;;;;;5032735;28;20350;-19
2024/01/02 05:50:30;;;;;;;0.30;0.30;;;13.00;99.90;;;;;;5016202;28;20022;-19
2024/01/02 05:52:57;;;;;;;0.25;0.25;;;13.00;99.90;;;;;;5014316;28;20563;-18
2024/01/02 05:55:23;;;;;;;0.30;0.30;;;13.10;99.90;;;;;;5016321;28;20997;-18
2024/01/02 05:57:49;;;;;;;0.40;0.40;;;13.10;99.90;;;;;;5018142;28;20061;-17
2024/01/02 06:00:15;;;;;;;0.40;0.40;;;14.60;99.90;;;;;;5009966;28;20055;-16
2024/01/02 06:02:40;;;;;;;0.52;0.50;;;13.10;99.90;;;;;;5014733;28;20072;-19
2024/01/02 06:05:07;;;;;;;0.40;0.40;;;13.10;99.90;;;;;;5013916;28;20055;-19
2024/01/02 06:07:32;;;;;;;0.47;0.47;;;13.10;99.90;;;;;;5015266;28;20026;-18
2024/01/02 06:10:01;;;;;;;0.50;0.50;;;13.20;99.90;;;;;;5027631;28;20430;-17
2024/01/02 06:12:27;;;;;;;0.55;0.50;;;13.20;99.90;;;;;;5013851;28;20404;-16
2024/01/02 06:14:52;;;;;;;0.60;0.30;;;13.20;99.90;;;;;;5013945;28;20324;-14
2024/01/02 06:17:18;;;;;;;0.70;0.60;;;13.20;99.90;;;;;;5015751;28;20062;-15
2024/01/02 06:19:44;;;;;;;0.50;0.47;;;13.20;99.90;;;;;;5010728;28;20156;-15
2024/01/02 06:22:09;;;;;;;0.60;0.50;;;13.20;99.90;;;;;;5015982;28;20024;-15
2024/01/02 06:24:35;;;;;;;0.40;0.40;;;13.30;99.90;;;;;;5015517;28;20032;-15
2024/01/02 06:27:01;;;;;;;0.47;0.43;;;13.30;99.90;;;;;;5016988;28;20030;-14
2024/01/02 06:29:27;;;;;;;0.70;0.40;;;13.30;99.90;;;;;;5012463;28;20088;-14
2024/01/02 06:31:52;;;;;;;2.83;0.63;;;13.30;99.90;;;;;;5012779;28;20034;-15
2024/01/02 06:34:18;;;;;;;0.60;0.40;;;13.40;99.90;;;;;;5013805;28;20076;-15
2024/01/02 06:36:44;;;;;;;0.40;0.40;;;13.40;99.90;;;;;;5012594;28;20108;-14
2024/01/02 06:39:10;;;;;;;0.30;0.30;;;13.40;99.90;;;;;;5013779;28;21576;-18
2024/01/02 06:41:35;;;;;;;0.40;0.40;;;13.40;99.90;;;;;;5012387;28;20055;-15
2024/01/02 06:44:01;;;;;;;0.30;0.30;;;13.40;99.90;;;;;;5015693;28;20026;-15
2024/01/02 06:46:27;;;;;;;0.30;0.30;;;13.80;99.90;;;;;;5011727;28;20025;-15
2024/01/02 06:48:52;;;;;;;0.50;0.40;;;13.40;99.90;;;;;;5015583;28;20330;-15
2024/01/02 06:51:18;;;;;;;0.30;0.30;;;13.40;99.90;;;;;;5012188;28;20202;-15
2024/01/02 06:53:44;;;;;;;1.30;0.50;;;13.40;99.90;;;;;;5012695;28;20029;-15
2024/01/02 06:56:10;;;;;;;0.20;0.20;;;13.50;99.90;;;;;;5019268;28;20437;-15
2024/01/02 06:58:36;;;;;;;0.30;0.30;;;13.50;99.90;;;;;;5014022;28;20501;-14
2024/01/02 07:01:02;;;;;;;0.30;0.30;;;12.50;99.90;;;;;;5014793;28;20567;-14
2024/01/02 07:03:28;;;;;;;0.97;0.40;;;13.50;99.90;;;;;;5025936;28;20028;-15
2024/01/02 07:05:54;;;;;;;0.38;0.38;;;13.50;99.90;;;;;;5013901;28;20014;-14
2024/01/02 07:08:19;;;;;;;0.37;0.37;;;13.50;99.90;;;;;;5014539;28;20052;-15
2024/01/02 07:10:45;;;;;;;0.30;0.30;;;13.50;99.90;;;;;;5000647;28;20299;-15
2024/01/02 07:13:11;;;;;;;0.22;0.22;;;13.50;99.90;;;;;;5012004;28;20485;-14
2024/01/02 07:15:37;;;;;;;0.40;0.40;;;13.50;99.90;;;;;;5042763;28;20529;-14
2024/01/02 07:18:03;;;;;;;0.30;0.30;;;13.50;99.90;;;;;;5019613;28;20086;-14
2024/01/02 07:20:28;;;;;;;0.30;0.30;;;13.50;99.90;;;;;;5014362;28;20637;-16
2024/01/02 07:22:54;;;;;;;0.20;0.20;;;13.50;99.90;;;;;;5012283;28;20382;-14
2024/01/02 07:25:20;;;;;;;0.30;0.30;;;13.50;99.90;;;;;;5013804;28;20237;-14
2024/01/02 07:27:46;;;;;;;0.30;0.30;;;13.50;99.90;;;;;;5012757;28;20741;-14
2024/01/02 07:30:11;;;;;;;0.40;0.40;;;13.50;99.90;;;;;;5012688;28;20041;-15
2024/01/02 07:32:38;;;;;;;0.30;0.30;;;13.50;99.90;;;;;;5014472;28;20573;-15
2024/01/02 07:35:04;;;;;;;0.30;0.30;;;13.60;99.90;;;;;;5012764;28;20116;-15
2024/01/02 07:37:31;;;;;;;0.30;0.30;;;13.50;99.90;;;;;;5010170;28;20167;-15
2024/01/02 07:39:57;;;;;;;0.40;0.40;;;13.60;99.90;;;;;;5020320;28;20381;-15
2024/01/02 07:42:23;;;;;;;0.40;0.40;;;13.60;99.90;;;;;;5016973;28;20025;-13
2024/01/02 07:44:49;;;;;;;0.32;0.32;;;13.60;99.90;;;;;;5013748;28;20469;-15
2024/01/02 07:47:16;;;;;;;0.30;0.30;;;13.60;99.90;;;;;;4998081;28;20025;-14
2024/01/02 07:49:43;;;;;;;0.50;0.50;;;13.60;99.90;;;;;;5012479;28;20113;-16
2024/01/02 07:52:08;;;;;;;0.40;0.40;;;13.60;99.90;;;;;;5014300;28;20025;-15
2024/01/02 07:54:38;;;;;;;0.40;0.40;;;13.60;99.90;;;;;;5015502;28;20033;-14
2024/01/02 07:57:05;;;;;;;0.30;0.30;;;13.60;99.90;;;;;;5009908;28;20037;-15
2024/01/02 07:59:30;;;;;;;0.30;0.30;;;13.60;99.90;;;;;;5014954;28;20041;-18
2024/01/02 08:01:56;;;;;;;0.40;0.40;;;13.60;99.90;;;;;;5012965;28;20029;-15
2024/01/02 08:04:24;;;;;;;0.23;0.23;;;13.60;99.90;;;;;;5011590;28;20034;-14
2024/01/02 08:06:50;;;;;;;0.30;0.30;;;13.70;99.90;;;;;;5010149;28;20030;-15
2024/01/02 08:09:15;;;;;;;0.32;0.32;;;13.60;99.90;;;;;;5015003;28;20046;-17
2024/01/02 08:11:41;;;;;;;0.97;0.50;;;13.60;99.90;;;;;;5014018;28;20407;-15
2024/01/02 08:14:07;;;;;;;0.50;0.35;;;13.60;99.90;;;;;;5002618;28;20438;-14
2024/01/02 08:16:33;;;;;;;0.40;0.40;;;13.60;99.90;;;;;;5011228;28;20394;-14
2024/01/02 08:18:59;;;;;;;0.40;0.40;;;13.70;99.90;;;;;;5014964;28;20250;-14
2024/01/02 08:21:24;;;;;;;0.88;0.40;;;13.70;99.90;;;;;;5012338;28;20114;-15
2024/01/02 08:23:50;;;;;;;0.37;0.30;;;13.70;99.90;;;;;;5011377;28;20635;-15
2024/01/02 08:26:16;;;;;;;0.28;0.28;;;13.40;99.90;;;;;;5012434;28;20533;-15
2024/01/02 08:28:42;;;;;;;0.40;0.40;;;13.70;99.90;;;;;;5000964;28;20033;-14
2024/01/02 08:31:07;;;;;;;0.30;0.30;;;13.70;99.90;;;;;;5028564;28;20030;-17
2024/01/02 08:33:33;;;;;;;0.25;0.25;;;13.70;99.90;;;;;;5011399;28;20061;-16
2024/01/02 08:35:59;;;;;;;0.30;0.30;;;13.70;99.90;;;;;;5011681;28;20436;-17
2024/01/02 08:38:24;;;;;;;0.50;0.35;;;13.70;99.90;;;;;;5014774;28;20025;-17
2024/01/02 08:40:50;;;;;;;0.70;0.33;;;13.70;99.90;;;;;;5014350;28;20084;-16
2024/01/02 08:43:17;;;;;;;0.80;0.40;;;13.70;99.90;;;;;;5009776;28;20036;-16
2024/01/02 08:45:45;;;;;;;0.50;0.40;;;13.70;99.90;;;;;;5010561;28;20133;-16
2024/01/02 08:48:11;;;;;;;0.40;0.33;;;13.80;99.90;;;;;;5010006;28;20226;-17
2024/01/02 08:50:41;;;;;;;0.30;0.30;;;13.80;99.90;;;;;;5027820;28;20483;-16
2024/01/02 08:53:11;;;;;;;0.40;0.40;;;13.80;99.90;;;;;;5011114;28;20033;-18
2024/01/02 08:55:37;;;;;;;0.52;0.40;;;13.80;99.90;;;;;;5012818;28;20049;-16
2024/01/02 08:58:03;;;;;;;0.43;0.40;;;13.80;99.90;;;;;;5015278;28;20154;-19
2024/01/02 09:00:30;;;;;;;0.47;0.40;;;13.80;99.90;;;;;;5026056;28;20437;-19
2024/01/02 09:02:55;;;;;;;0.55;0.50;;;13.80;99.90;;;;;;5013753;28;20060;-18
2024/01/02 09:05:21;;;;;;;0.63;0.40;;;13.80;99.90;;;;;;5014262;28;20060;-17
2024/01/02 09:07:47;;;;;;;0.57;0.50;;;13.80;99.90;;;;;;5010298;28;20730;-18
2024/01/02 09:10:13;;;;;;;0.70;0.40;;;13.80;99.90;;;;;;5012319;28;20076;-17
2024/01/02 09:12:39;;;;;;;0.65;0.45;;;13.80;99.90;;;;;;5010882;28;20026;-17
2024/01/02 09:15:06;;;;;;;0.60;0.50;;;13.80;99.90;;;;;;5008991;28;20017;-18
2024/01/02 09:17:32;;;;;;;0.30;0.30;;;13.80;99.90;;;;;;5008844;28;20647;-18
2024/01/02 09:19:58;;;;;;;0.90;0.50;;;12.80;99.90;;;;;;5010141;28;20129;-16
2024/01/02 09:22:24;;;;;;;0.52;0.40;;;13.80;99.90;;;;;;5015694;28;20108;-18
2024/01/02 09:24:52;;;;;;;0.30;0.30;;;13.80;99.90;;;;;;5040705;28;20032;-17
2024/01/02 09:27:19;;;;;;;0.30;0.30;;;13.70;99.90;;;;;;5010602;28;20343;-17
2024/01/02 09:29:45;;;;;;;0.50;0.40;;;13.70;99.90;;;;;;5016713;28;20022;-17
2024/01/02 09:32:11;;;;;;;0.53;0.40;;;13.70;99.90;;;;;;5009752;28;20034;-17
2024/01/02 09:34:37;;;;;;;0.32;0.32;;;13.70;99.90;;;;;;5041354;28;20022;-17
2024/01/02 09:37:06;;;;;;;0.30;0.30;;;13.70;99.90;;;;;;5011188;28;20559;-16
2024/01/02 09:39:32;;;;;;;0.50;0.50;;;13.70;99.90;;;;;;5009423;28;20025;-16
2024/01/02 09:42:04;;;;;;;1.75;0.50;;;13.70;99.90;;;;;;5008377;28;20144;-15
2024/01/02 09:44:37;;;;;;;0.52;0.50;;;13.70;99.90;;;;;;5013911;28;20152;-15
2024/01/02 09:47:29;;;;;;;0.60;0.50;;;13.10;99.90;;;;;;5009124;28;20575;-15
2024/01/02 09:49:55;;;;;;;2.88;0.70;;;13.70;99.90;;;;;;5011930;28;20115;-15
2024/01/02 09:52:48;;;;;;;1.97;0.70;;;13.70;99.90;;;;;;5008423;28;20504;-19
2024/01/02 09:55:33;;;;;;;2.47;0.60;;;13.80;99.90;;;;;;5010273;28;20034;-18
2024/01/02 09:57:59;;;;;;;2.38;0.90;;;13.70;99.90;;;;;;5011723;28;20085;-19
2024/01/02 10:01:02;;;;;;;1.17;0.60;;;13.70;99.90;;;;;;5016217;28;20159;-18
2024/01/02 10:04:20;;;;;;;0.97;0.60;;;13.70;99.90;;;;;;5024389;28;20399;-22
2024/01/02 10:06:58;;;;;;;0.68;0.50;;;13.70;99.90;;;;;;4980957;28;20046;-22
2024/01/02 10:09:48;;;;;;;0.52;0.50;;;13.70;99.90;;;;;;5011547;28;20444;-22
2024/01/02 10:12:20;;;;;;;0.40;0.40;;;13.70;99.90;;;;;;5015845;28;20390;-21
2024/01/02 10:15:00;;;;;;;0.65;0.40;;;13.60;99.90;;;;;;5014411;28;20068;-23
2024/01/02 10:17:51;;;;;;;0.43;0.43;;;13.60;99.90;;;;;;5013323;28;20102;-22
2024/01/02 10:20:25;;;;;;;0.47;0.47;;;13.60;99.90;;;;;;5014254;28;20176;-21
2024/01/02 10:23:15;;;;;;;0.40;0.40;;;13.60;99.90;;;;;;5011850;28;20041;-23
2024/01/02 10:25:41;;;;;;;0.77;0.47;;;13.60;99.90;;;;;;5009864;28;20049;-22
2024/01/02 10:28:25;;;;;;;0.50;0.50;;;13.50;99.90;;;;;;5013768;28;20384;-22
2024/01/02 10:31:04;;;;;;;0.40;0.40;;;13.50;99.90;;;;;;5012416;28;20041;-22
2024/01/02 10:33:31;;;;;;;0.60;0.43;;;13.50;99.90;;;;;;5010636;28;20021;-22
2024/01/02 10:36:11;;;;;;;0.32;0.30;;;13.50;99.90;;;;;;5012830;28;20121;-21
2024/01/02 10:38:56;;;;;;;0.40;0.40;;;13.40;99.90;;;;;;5017310;28;20045;-21
2024/01/02 10:42:03;;;;;;;0.93;0.30;;;13.40;99.90;;;;;;5014617;28;20048;-20
2024/01/02 10:44:57;;;;;;;0.30;0.30;;;13.40;99.90;;;;;;5034722;28;20038;-21
2024/01/02 10:48:02;;;;;;;0.95;0.40;;;13.40;99.90;;;;;;4984674;28;20044;-20
2024/01/02 10:51:02;;;;;;;0.55;0.40;;;13.30;99.90;;;;;;4995687;28;20037;-21
2024/01/02 10:53:48;;;;;;;0.32;0.32;;;13.30;99.90;;;;;;5008681;28;20044;-19
2024/01/02 10:56:39;;;;;;;0.57;0.40;;;13.30;99.90;;;;;;5012361;28;20030;-21
2024/01/02 10:59:30;;;;;;;0.22;0.22;;;13.30;99.90;;;;;;5012751;28;20190;-21
2024/01/02 11:02:05;;;;;;;0.30;0.30;;;13.20;99.90;;;;;;5007752;28;20034;-21
2024/01/02 11:04:32;;;;;;;0.43;0.30;;;;;;;;;;5005828;28;20037;-20
2024/01/02 11:07:09;;;;;;;0.30;0.30;;;13.20;99.90;;;;;;5008491;28;20041;-23
2024/01/02 11:10:17;;;;;;;0.30;0.30;;;13.20;99.90;;;;;;5012846;28;20080;-20
2024/01/02 11:12:54;;;;;;;0.30;0.30;;;13.20;99.90;;;;;;5010018;28;20041;-18
2024/01/02 11:15:21;;;;;;;0.30;0.30;;;13.20;99.90;;;;;;5029913;28;20044;-18
2024/01/02 11:17:51;;;;;;;1.15;0.40;;;13.20;99.90;;;;;;5012370;28;20021;-17
2024/01/02 11:20:20;;;;;;;0.50;0.50;;;13.10;99.90;;;;;;5012150;28;20100;-18
2024/01/02 11:22:50;;;;;;;0.80;0.40;;;13.10;99.90;;;;;;5011912;28;20021;-18
2024/01/02 11:25:18;;;;;;;0.70;0.50;;;13.10;99.90;;;;;;5043134;28;20468;-17
2024/01/02 11:27:45;;;;;;;0.52;0.47;;;13.10;99.90;;;;;;5011944;28;20022;-17
2024/01/02 11:30:13;;;;;;;1.98;0.70;;;13.10;99.90;;;;;;5010191;28;20067;-18
2024/01/02 11:32:46;;;;;;;0.70;0.50;;;13.00;99.90;;;;;;5042625;28;20030;-17
2024/01/02 11:35:12;;;;;;;0.63;0.50;;;13.10;99.90;;;;;;5005993;28;21060;-17
2024/01/02 11:37:40;;;;;;;0.50;0.50;;;13.10;99.90;;;;;;5040050;28;20643;-17
2024/01/02 11:40:21;;;;;;;0.50;0.40;;;14.40;99.90;;;;;;5011252;28;20030;-18
2024/01/02 11:43:03;;;;;;;0.40;0.40;;;13.00;99.90;;;;;;5041192;28;20119;-20
2024/01/02 11:45:34;;;;;;;0.40;0.40;;;13.00;99.90;;;;;;5012668;28;20403;-18
2024/01/02 11:48:25;;;;;;;0.67;0.40;;;13.00;99.90;;;;;;5006527;28;20033;-20
2024/01/02 11:51:28;;;;;;;0.40;0.40;;;12.30;99.90;;;;;;5012625;28;20513;-18
2024/01/02 11:54:09;;;;;;;0.80;0.50;;;13.10;99.90;;;;;;5010382;28;20432;-20
2024/01/02 11:56:36;;;;;;;0.50;0.40;;;13.00;99.90;;;;;;5008634;28;20119;-20
2024/01/02 11:59:10;;;;;;;0.82;0.30;;;13.00;99.90;;;;;;5012756;28;20053;-21
2024/01/02 12:01:52;;;;;;;0.50;0.50;;;13.10;99.90;;;;;;5009951;28;20398;-19
2024/01/02 12:04:21;;;;;;;0.77;0.40;;;13.00;99.90;;;;;;5006612;28;20401;-20
2024/01/02 12:07:09;;;;;;;0.77;0.50;;;13.00;99.90;;;;;;5043838;28;20096;-21
2024/01/02 12:09:40;;;;;;;0.75;0.50;;;13.00;99.90;;;;;;5022279;28;20069;-20
2024/01/02 12:12:35;;;;;;;0.50;0.43;;;13.10;99.90;;;;;;5010957;28;20469;-20
2024/01/02 12:15:26;;;;;;;1.27;0.60;;;13.10;99.90;;;;;;5009584;28;20112;-20
2024/01/02 12:18:06;;;;;;;0.50;0.50;;;13.10;99.90;;;;;;5040485;28;20037;-19
2024/01/02 12:20:46;;;;;;;0.65;0.40;;;13.10;99.90;;;;;;5007975;28;20183;-19
2024/01/02 12:23:12;;;;;;;1.02;0.70;;;13.10;99.90;;;;;;5011510;28;20062;-18
2024/01/02 12:25:42;;;;;;;1.52;0.82;;;13.10;99.90;;;;;;5009752;28;20026;-17
2024/01/02 12:28:09;;;;;;;1.83;0.77;;;13.10;99.90;;;;;;5008578;28;20030;-18
2024/01/02 12:30:42;;;;;;;0.73;0.60;;;13.10;99.90;;;;;;5009599;28;20381;-17
2024/01/02 12:33:23;;;;;;;1.45;0.77;;;13.20;99.90;;;;;;5011077;28;20548;-17
2024/01/02 12:35:55;;;;;;;2.17;1.00;;;13.20;99.90;;;;;;5008617;28;20514;-18
2024/01/02 12:38:21;;;;;;;1.40;0.85;;;13.20;99.90;;;;;;5008341;28;20045;-18
2024/01/02 12:40:49;;;;;;;1.90;0.90;;;13.20;99.90;;;;;;5037905;28;20021;-17
2024/01/02 12:43:29;;;;;;;1.13;0.70;;;13.20;99.90;;;;;;5040399;28;20397;-17
2024/01/02 12:46:14;;;;;;;1.30;0.70;;;13.30;99.90;;;;;;5007783;28;20492;-18
2024/01/02 12:48:54;;;;;;;0.95;0.60;;;13.30;99.90;;;;;;5011505;28;20041;-17
2024/01/02 12:51:21;;;;;;;1.60;0.70;;;13.30;99.90;;;;;;5006473;28;20369;-20
2024/01/02 12:56:31;;;;;;;1.65;0.93;;;13.40;99.90;;;;;;5038760;23;20065;-16
2024/01/02 12:59:01;;;;;;;3.40;1.20;;;13.40;99.90;;;;;;4995018;28;20060;-16